sensor_id;sensor_type;location;lat;lon;timestamp;temperature;humidity
46117;DHT22;32591;48.102;11.772;2022-10-03T00:04:43;11.40;99.90
46117;DHT22;32591;48.102;11.772;2022-10-03T00:07:25;11.30;99.90
46117;DHT22;32591;48.102;11.772;2022-10-03T00:10:12;11.20;99.90
46117;DHT22;32591;48.102;11.772;2022-10-03T00:13:09;11.10;99.90
46117;DHT22;32591;48.102;11.772;2022-10-03T00:15:52;11.10;99.90
46117;DHT22;32591;48.102;11.772;2022-10-03T00:18:36;11.00;99.90
46117;DHT22;32591;48.102;11.772;2022-10-03T00:21:20;11.00;99.90
46117;DHT22;32591;48.102;11.772;2022-10-03T00:23:58;11.10;99.90
46117;DHT22;32591;48.102;11.772;2022-10-03T00:26:40;11.10;99.90
46117;DHT22;32591;48.102;11.772;2022-10-03T00:29:32;11.10;99.90
46117;DHT22;32591;48.102;11.772;2022-10-03T00:32:10;11.10;99.90
46117;DHT22;32591;48.102;11.772;2022-10-03T00:34:57;11.00;99.90
46117;DHT22;32591;48.102;11.772;2022-10-03T00:37:43;11.10;99.90
46117;DHT22;32591;48.102;11.772;2022-10-03T00:40:38;11.10;99.90
46117;DHT22;32591;48.102;11.772;2022-10-03T00:43:42;11.10;99.90
46117;DHT22;32591;48.102;11.772;2022-10-03T00:46:53;11.00;99.90
46117;DHT22;32591;48.102;11.772;2022-10-03T00:52:58;10.90;99.90
46117;DHT22;32591;48.102;11.772;2022-10-03T00:55:47;10.80;99.90
46117;DHT22;32591;48.102;11.772;2022-10-03T00:58:41;10.80;99.90
46117;DHT22;32591;48.102;11.772;2022-10-03T01:01:29;10.80;99.90
46117;DHT22;32591;48.102;11.772;2022-10-03T01:04:20;10.80;99.90
46117;DHT22;32591;48.102;11.772;2022-10-03T01:07:04;10.80;99.90
46117;DHT22;32591;48.102;11.772;2022-10-03T01:09:50;10.70;99.90
46117;DHT22;32591;48.102;11.772;2022-10-03T01:12:34;10.70;99.90
46117;DHT22;32591;48.102;11.772;2022-10-03T01:15:17;10.70;99.90
46117;DHT22;32591;48.102;11.772;2022-10-03T01:18:04;10.70;99.90
46117;DHT22;32591;48.102;11.772;2022-10-03T01:20:51;10.70;99.90
46117;DHT22;32591;48.102;11.772;2022-10-03T01:23:37;10.70;99.90
46117;DHT22;32591;48.102;11.772;2022-10-03T01:26:26;10.60;99.90
46117;DHT22;32591;48.102;11.772;2022-10-03T01:29:10;10.60;99.90
46117;DHT22;32591;48.102;11.772;2022-10-03T01:32:01;10.60;99.90
46117;DHT22;32591;48.102;11.772;2022-10-03T01:34:39;10.60;99.90
46117;DHT22;32591;48.102;11.772;2022-10-03T01:37:11;10.50;99.90
46117;DHT22;32591;48.102;11.772;2022-10-03T01:39:48;10.50;99.90
46117;DHT22;32591;48.102;11.772;2022-10-03T01:42:20;10.50;99.90
46117;DHT22;32591;48.102;11.772;2022-10-03T01:45:09;10.40;99.90
46117;DHT22;32591;48.102;11.772;2022-10-03T01:47:45;10.40;99.90
46117;DHT22;32591;48.102;11.772;2022-10-03T01:50:22;10.40;99.90
46117;DHT22;32591;48.102;11.772;2022-10-03T01:52:59;10.40;99.90
46117;DHT22;32591;48.102;11.772;2022-10-03T01:55:36;10.30;99.90
46117;DHT22;32591;48.102;11.772;2022-10-03T01:58:12;10.30;99.90
46117;DHT22;32591;48.102;11.772;2022-10-03T02:00:52;10.20;99.90
46117;DHT22;32591;48.102;11.772;2022-10-03T02:03:26;10.20;99.90
46117;DHT22;32591;48.102;11.772;2022-10-03T02:05:59;10.10;99.90
46117;DHT22;32591;48.102;11.772;2022-10-03T02:08:45;10.10;99.90
46117;DHT22;32591;48.102;11.772;2022-10-03T02:11:27;10.10;99.90
46117;DHT22;32591;48.102;11.772;2022-10-03T02:14:05;10.00;99.90
46117;DHT22;32591;48.102;11.772;2022-10-03T02:16:42;10.00;99.90
46117;DHT22;32591;48.102;11.772;2022-10-03T02:19:16;10.00;99.90
46117;DHT22;32591;48.102;11.772;2022-10-03T02:21:48;10.00;99.90
46117;DHT22;32591;48.102;11.772;2022-10-03T02:27:32;10.10;99.90
46117;DHT22;32591;48.102;11.772;2022-10-03T02:30:16;10.00;99.90
46117;DHT22;32591;48.102;11.772;2022-10-03T02:33:19;10.00;99.90
46117;DHT22;32591;48.102;11.772;2022-10-03T02:36:21;10.10;99.90
46117;DHT22;32591;48.102;11.772;2022-10-03T02:39:38;10.20;99.90
46117;DHT22;32591;48.102;11.772;2022-10-03T02:49:52;10.30;99.90
46117;DHT22;32591;48.102;11.772;2022-10-03T02:53:16;10.30;99.90
46117;DHT22;32591;48.102;11.772;2022-10-03T02:59:31;10.40;99.90
46117;DHT22;32591;48.102;11.772;2022-10-03T03:02:32;10.40;99.90
46117;DHT22;32591;48.102;11.772;2022-10-03T03:05:21;10.40;99.90
46117;DHT22;32591;48.102;11.772;2022-10-03T03:08:17;10.40;99.90
46117;DHT22;32591;48.102;11.772;2022-10-03T03:11:15;10.40;99.90
46117;DHT22;32591;48.102;11.772;2022-10-03T03:14:36;10.50;99.90
46117;DHT22;32591;48.102;11.772;2022-10-03T03:17:21;10.50;99.90
46117;DHT22;32591;48.102;11.772;2022-10-03T03:20:16;10.50;99.90
46117;DHT22;32591;48.102;11.772;2022-10-03T03:23:08;10.50;99.90
46117;DHT22;32591;48.102;11.772;2022-10-03T03:26:01;10.50;99.90
46117;DHT22;32591;48.102;11.772;2022-10-03T03:29:02;10.50;99.90
46117;DHT22;32591;48.102;11.772;2022-10-03T03:31:40;10.50;99.90
46117;DHT22;32591;48.102;11.772;2022-10-03T03:34:13;10.50;99.90
46117;DHT22;32591;48.102;11.772;2022-10-03T03:36:50;10.40;99.90
46117;DHT22;32591;48.102;11.772;2022-10-03T03:39:32;10.40;99.90
46117;DHT22;32591;48.102;11.772;2022-10-03T03:42:17;10.30;99.90
46117;DHT22;32591;48.102;11.772;2022-10-03T03:45:07;10.30;99.90
46117;DHT22;32591;48.102;11.772;2022-10-03T03:48:02;10.20;99.90
46117;DHT22;32591;48.102;11.772;2022-10-03T03:50:45;10.20;99.90
46117;DHT22;32591;48.102;11.772;2022-10-03T03:56:58;10.10;99.90
46117;DHT22;32591;48.102;11.772;2022-10-03T03:59:40;10.00;99.90
46117;DHT22;32591;48.102;11.772;2022-10-03T04:02:26;10.00;99.90
46117;DHT22;32591;48.102;11.772;2022-10-03T04:05:12;10.00;99.90
46117;DHT22;32591;48.102;11.772;2022-10-03T04:07:58;9.80;99.90
46117;DHT22;32591;48.102;11.772;2022-10-03T04:10:50;9.80;99.90
46117;DHT22;32591;48.102;11.772;2022-10-03T04:13:33;9.80;99.90
46117;DHT22;32591;48.102;11.772;2022-10-03T04:16:30;9.80;99.90
46117;DHT22;32591;48.102;11.772;2022-10-03T04:19:43;9.70;99.90
46117;DHT22;32591;48.102;11.772;2022-10-03T04:22:29;9.60;99.90
46117;DHT22;32591;48.102;11.772;2022-10-03T04:25:21;9.60;99.90
46117;DHT22;32591;48.102;11.772;2022-10-03T04:28:23;9.60;99.90
46117;DHT22;32591;48.102;11.772;2022-10-03T04:31:24;9.60;99.90
46117;DHT22;32591;48.102;11.772;2022-10-03T04:34:15;9.60;99.90
46117;DHT22;32591;48.102;11.772;2022-10-03T04:37:00;9.60;99.90
46117;DHT22;32591;48.102;11.772;2022-10-03T04:39:41;9.60;99.90
46117;DHT22;32591;48.102;11.772;2022-10-03T04:42:20;9.60;99.90
46117;DHT22;32591;48.102;11.772;2022-10-03T04:45:12;9.60;99.90
46117;DHT22;32591;48.102;11.772;2022-10-03T04:47:50;9.60;99.90
46117;DHT22;32591;48.102;11.772;2022-10-03T04:50:27;9.50;99.90
46117;DHT22;32591;48.102;11.772;2022-10-03T04:53:18;9.50;99.90
46117;DHT22;32591;48.102;11.772;2022-10-03T04:55:55;9.40;99.90
46117;DHT22;32591;48.102;11.772;2022-10-03T04:58:33;9.40;99.90
46117;DHT22;32591;48.102;11.772;2022-10-03T05:01:13;9.30;99.90
46117;DHT22;32591;48.102;11.772;2022-10-03T05:03:48;9.30;99.90
46117;DHT22;32591;48.102;11.772;2022-10-03T05:06:32;9.30;99.90
46117;DHT22;32591;48.102;11.772;2022-10-03T05:09:20;9.40;99.90
46117;DHT22;32591;48.102;11.772;2022-10-03T05:11:58;9.40;99.90
46117;DHT22;32591;48.102;11.772;2022-10-03T05:14:44;9.40;99.90
46117;DHT22;32591;48.102;11.772;2022-10-03T05:17:21;9.40;99.90
46117;DHT22;32591;48.102;11.772;2022-10-03T05:20:02;9.50;99.90
46117;DHT22;32591;48.102;11.772;2022-10-03T05:22:49;9.50;99.90
46117;DHT22;32591;48.102;11.772;2022-10-03T05:25:30;9.50;99.90
46117;DHT22;32591;48.102;11.772;2022-10-03T05:28:11;9.50;99.90
46117;DHT22;32591;48.102;11.772;2022-10-03T05:30:46;9.60;99.90
46117;DHT22;32591;48.102;11.772;2022-10-03T05:33:25;9.50;99.90
46117;DHT22;32591;48.102;11.772;2022-10-03T05:36:05;9.60;99.90
46117;DHT22;32591;48.102;11.772;2022-10-03T05:39:19;9.60;99.90
46117;DHT22;32591;48.102;11.772;2022-10-03T05:41:53;9.60;99.90
46117;DHT22;32591;48.102;11.772;2022-10-03T05:44:33;9.70;99.90
46117;DHT22;32591;48.102;11.772;2022-10-03T05:47:10;9.70;99.90
46117;DHT22;32591;48.102;11.772;2022-10-03T05:50:17;9.80;99.90
46117;DHT22;32591;48.102;11.772;2022-10-03T05:53:27;9.80;99.90
46117;DHT22;32591;48.102;11.772;2022-10-03T05:56:07;9.80;99.90
46117;DHT22;32591;48.102;11.772;2022-10-03T06:01:59;9.90;99.90
46117;DHT22;32591;48.102;11.772;2022-10-03T06:04:56;9.80;99.90
46117;DHT22;32591;48.102;11.772;2022-10-03T06:07:35;9.80;99.90
46117;DHT22;32591;48.102;11.772;2022-10-03T06:10:37;9.80;99.90
46117;DHT22;32591;48.102;11.772;2022-10-03T06:13:13;9.80;99.90
46117;DHT22;32591;48.102;11.772;2022-10-03T06:15:54;9.90;99.90
46117;DHT22;32591;48.102;11.772;2022-10-03T06:18:50;10.00;99.90
46117;DHT22;32591;48.102;11.772;2022-10-03T06:22:20;10.00;99.90
46117;DHT22;32591;48.102;11.772;2022-10-03T06:25:51;9.80;99.90
46117;DHT22;32591;48.102;11.772;2022-10-03T06:28:52;9.80;99.90
46117;DHT22;32591;48.102;11.772;2022-10-03T06:35:29;10.10;99.90
46117;DHT22;32591;48.102;11.772;2022-10-03T06:48:23;10.10;99.90
46117;DHT22;32591;48.102;11.772;2022-10-03T06:51:23;10.10;99.90
46117;DHT22;32591;48.102;11.772;2022-10-03T07:01:47;10.30;99.90
46117;DHT22;32591;48.102;11.772;2022-10-03T07:04:42;10.40;99.90
46117;DHT22;32591;48.102;11.772;2022-10-03T07:07:54;10.50;99.90
46117;DHT22;32591;48.102;11.772;2022-10-03T07:10:58;10.50;99.90
46117;DHT22;32591;48.102;11.772;2022-10-03T07:13:53;10.60;99.90
46117;DHT22;32591;48.102;11.772;2022-10-03T07:16:48;10.60;99.90
46117;DHT22;32591;48.102;11.772;2022-10-03T07:19:51;10.60;99.90
46117;DHT22;32591;48.102;11.772;2022-10-03T07:29:25;10.70;99.90
46117;DHT22;32591;48.102;11.772;2022-10-03T07:32:17;10.80;99.90
46117;DHT22;32591;48.102;11.772;2022-10-03T07:35:23;10.90;99.90
46117;DHT22;32591;48.102;11.772;2022-10-03T07:38:46;11.00;99.90
46117;DHT22;32591;48.102;11.772;2022-10-03T07:41:40;11.00;99.90
46117;DHT22;32591;48.102;11.772;2022-10-03T07:48:12;11.00;99.90
46117;DHT22;32591;48.102;11.772;2022-10-03T07:51:08;11.10;99.90
46117;DHT22;32591;48.102;11.772;2022-10-03T07:54:17;11.20;99.90
46117;DHT22;32591;48.102;11.772;2022-10-03T07:57:00;11.30;99.90
46117;DHT22;32591;48.102;11.772;2022-10-03T08:00:14;11.40;99.90
46117;DHT22;32591;48.102;11.772;2022-10-03T08:06:22;11.50;99.90
46117;DHT22;32591;48.102;11.772;2022-10-03T08:12:39;11.60;99.90
46117;DHT22;32591;48.102;11.772;2022-10-03T08:15:25;11.60;99.90
46117;DHT22;32591;48.102;11.772;2022-10-03T08:21:23;11.40;99.90
46117;DHT22;32591;48.102;11.772;2022-10-03T08:24:19;11.40;99.90
46117;DHT22;32591;48.102;11.772;2022-10-03T08:27:16;11.40;99.90
46117;DHT22;32591;48.102;11.772;2022-10-03T08:30:13;11.50;99.90
46117;DHT22;32591;48.102;11.772;2022-10-03T08:32:58;11.60;99.90
46117;DHT22;32591;48.102;11.772;2022-10-03T08:39:12;11.60;99.90
46117;DHT22;32591;48.102;11.772;2022-10-03T08:48:32;11.40;99.90
46117;DHT22;32591;48.102;11.772;2022-10-03T08:51:37;11.30;99.90
46117;DHT22;32591;48.102;11.772;2022-10-03T08:57:24;11.50;99.90
46117;DHT22;32591;48.102;11.772;2022-10-03T09:00:16;11.50;99.90
46117;DHT22;32591;48.102;11.772;2022-10-03T09:10:03;11.50;99.90
46117;DHT22;32591;48.102;11.772;2022-10-03T09:22:58;11.60;99.90
46117;DHT22;32591;48.102;11.772;2022-10-03T09:25:57;11.60;99.90
46117;DHT22;32591;48.102;11.772;2022-10-03T09:29:04;11.50;99.90
46117;DHT22;32591;48.102;11.772;2022-10-03T09:32:15;11.40;99.90
46117;DHT22;32591;48.102;11.772;2022-10-03T09:35:29;11.40;99.90
46117;DHT22;32591;48.102;11.772;2022-10-03T09:38:35;11.50;99.90
46117;DHT22;32591;48.102;11.772;2022-10-03T09:41:40;11.70;99.90
46117;DHT22;32591;48.102;11.772;2022-10-03T09:44:42;11.70;99.90
46117;DHT22;32591;48.102;11.772;2022-10-03T09:47:46;11.80;99.90
46117;DHT22;32591;48.102;11.772;2022-10-03T09:50:52;11.90;99.90
46117;DHT22;32591;48.102;11.772;2022-10-03T09:53:50;12.00;99.90
46117;DHT22;32591;48.102;11.772;2022-10-03T09:57:10;12.30;99.90
46117;DHT22;32591;48.102;11.772;2022-10-03T10:00:10;12.70;99.90
46117;DHT22;32591;48.102;11.772;2022-10-03T10:06:14;12.70;99.90
46117;DHT22;32591;48.102;11.772;2022-10-03T10:12:11;12.50;99.90
46117;DHT22;32591;48.102;11.772;2022-10-03T10:15:02;12.50;99.90
46117;DHT22;32591;48.102;11.772;2022-10-03T10:18:26;12.50;99.90
46117;DHT22;32591;48.102;11.772;2022-10-03T10:24:54;12.60;99.90
46117;DHT22;32591;48.102;11.772;2022-10-03T10:28:03;12.40;99.90
46117;DHT22;32591;48.102;11.772;2022-10-03T10:31:06;12.30;99.90
46117;DHT22;32591;48.102;11.772;2022-10-03T10:34:28;12.20;99.90
46117;DHT22;32591;48.102;11.772;2022-10-03T10:41:33;12.30;99.90
46117;DHT22;32591;48.102;11.772;2022-10-03T10:44:36;12.50;99.90
46117;DHT22;32591;48.102;11.772;2022-10-03T10:47:44;12.70;99.90
46117;DHT22;32591;48.102;11.772;2022-10-03T10:54:12;13.30;99.90
46117;DHT22;32591;48.102;11.772;2022-10-03T10:57:09;13.40;99.90
46117;DHT22;32591;48.102;11.772;2022-10-03T11:10:08;13.90;99.90
46117;DHT22;32591;48.102;11.772;2022-10-03T11:13:40;14.00;99.90
46117;DHT22;32591;48.102;11.772;2022-10-03T11:20:07;13.80;99.90
46117;DHT22;32591;48.102;11.772;2022-10-03T11:23:19;13.80;99.90
46117;DHT22;32591;48.102;11.772;2022-10-03T11:26:43;14.10;99.90
46117;DHT22;32591;48.102;11.772;2022-10-03T11:30:10;14.50;99.90
46117;DHT22;32591;48.102;11.772;2022-10-03T11:33:31;14.70;99.90
46117;DHT22;32591;48.102;11.772;2022-10-03T11:40:04;14.50;99.90
46117;DHT22;32591;48.102;11.772;2022-10-03T11:42:52;14.40;99.90
46117;DHT22;32591;48.102;11.772;2022-10-03T11:45:28;14.40;99.90
46117;DHT22;32591;48.102;11.772;2022-10-03T11:48:11;14.40;99.90
46117;DHT22;32591;48.102;11.772;2022-10-03T11:50:52;14.30;99.90
46117;DHT22;32591;48.102;11.772;2022-10-03T11:53:32;14.20;99.90
46117;DHT22;32591;48.102;11.772;2022-10-03T11:56:19;14.10;99.90
46117;DHT22;32591;48.102;11.772;2022-10-03T11:59:15;14.10;99.90
46117;DHT22;32591;48.102;11.772;2022-10-03T12:02:10;14.00;99.90
46117;DHT22;32591;48.102;11.772;2022-10-03T12:04:55;14.20;99.90
46117;DHT22;32591;48.102;11.772;2022-10-03T12:07:36;14.30;99.90
46117;DHT22;32591;48.102;11.772;2022-10-03T12:10:34;14.40;99.90
46117;DHT22;32591;48.102;11.772;2022-10-03T12:13:08;14.40;99.90
46117;DHT22;32591;48.102;11.772;2022-10-03T12:15:42;14.30;99.90
46117;DHT22;32591;48.102;11.772;2022-10-03T12:18:17;14.20;99.80
46117;DHT22;32591;48.102;11.772;2022-10-03T12:21:09;14.10;99.90
46117;DHT22;32591;48.102;11.772;2022-10-03T12:24:00;14.00;99.90
46117;DHT22;32591;48.102;11.772;2022-10-03T12:26:40;13.90;99.90
46117;DHT22;32591;48.102;11.772;2022-10-03T12:29:15;13.80;99.90
46117;DHT22;32591;48.102;11.772;2022-10-03T12:31:52;14.00;99.90
46117;DHT22;32591;48.102;11.772;2022-10-03T12:34:36;14.30;99.90
46117;DHT22;32591;48.102;11.772;2022-10-03T12:37:18;14.60;99.20
46117;DHT22;32591;48.102;11.772;2022-10-03T12:40:00;14.90;97.00
46117;DHT22;32591;48.102;11.772;2022-10-03T12:42:33;15.10;96.70
46117;DHT22;32591;48.102;11.772;2022-10-03T12:45:11;15.00;97.10
46117;DHT22;32591;48.102;11.772;2022-10-03T12:47:54;15.00;98.60
46117;DHT22;32591;48.102;11.772;2022-10-03T12:50:37;15.10;96.80
46117;DHT22;32591;48.102;11.772;2022-10-03T12:53:26;15.30;97.00
46117;DHT22;32591;48.102;11.772;2022-10-03T12:56:03;15.70;95.90
46117;DHT22;32591;48.102;11.772;2022-10-03T12:58:42;15.80;93.80
46117;DHT22;32591;48.102;11.772;2022-10-03T13:01:25;15.70;92.70
46117;DHT22;32591;48.102;11.772;2022-10-03T13:03:55;15.30;94.50
46117;DHT22;32591;48.102;11.772;2022-10-03T13:06:51;14.90;96.50
46117;DHT22;32591;48.102;11.772;2022-10-03T13:12:39;14.60;96.40
46117;DHT22;32591;48.102;11.772;2022-10-03T13:15:55;14.60;97.60
46117;DHT22;32591;48.102;11.772;2022-10-03T13:18:42;14.60;96.70
46117;DHT22;32591;48.102;11.772;2022-10-03T13:21:17;14.50;96.10
46117;DHT22;32591;48.102;11.772;2022-10-03T13:23:50;14.40;97.30
46117;DHT22;32591;48.102;11.772;2022-10-03T13:26:24;14.30;98.40
46117;DHT22;32591;48.102;11.772;2022-10-03T13:29:13;14.30;99.40
46117;DHT22;32591;48.102;11.772;2022-10-03T13:35:06;14.20;99.90
46117;DHT22;32591;48.102;11.772;2022-10-03T13:38:15;14.30;99.50
46117;DHT22;32591;48.102;11.772;2022-10-03T13:40:55;14.60;99.30
46117;DHT22;32591;48.102;11.772;2022-10-03T13:43:28;14.80;97.70
46117;DHT22;32591;48.102;11.772;2022-10-03T13:46:03;15.00;98.70
46117;DHT22;32591;48.102;11.772;2022-10-03T13:48:33;15.30;97.10
46117;DHT22;32591;48.102;11.772;2022-10-03T13:51:04;15.60;95.20
46117;DHT22;32591;48.102;11.772;2022-10-03T13:53:52;15.90;95.00
46117;DHT22;32591;48.102;11.772;2022-10-03T13:56:37;16.10;92.90
46117;DHT22;32591;48.102;11.772;2022-10-03T13:59:23;16.40;94.00
46117;DHT22;32591;48.102;11.772;2022-10-03T14:02:05;16.50;91.00
46117;DHT22;32591;48.102;11.772;2022-10-03T14:05:12;16.70;92.40
46117;DHT22;32591;48.102;11.772;2022-10-03T14:07:53;16.90;94.20
46117;DHT22;32591;48.102;11.772;2022-10-03T14:10:48;17.00;93.60
46117;DHT22;32591;48.102;11.772;2022-10-03T14:13:27;17.00;93.80
46117;DHT22;32591;48.102;11.772;2022-10-03T14:16:00;16.70;93.90
46117;DHT22;32591;48.102;11.772;2022-10-03T14:18:41;16.20;95.60
46117;DHT22;32591;48.102;11.772;2022-10-03T14:24:36;15.70;97.00
46117;DHT22;32591;48.102;11.772;2022-10-03T14:27:33;15.80;96.90
46117;DHT22;32591;48.102;11.772;2022-10-03T14:30:09;16.00;95.60
46117;DHT22;32591;48.102;11.772;2022-10-03T14:32:47;16.10;95.20
46117;DHT22;32591;48.102;11.772;2022-10-03T14:35:29;15.80;95.60
46117;DHT22;32591;48.102;11.772;2022-10-03T14:38:13;15.70;95.70
46117;DHT22;32591;48.102;11.772;2022-10-03T14:41:17;15.90;96.60
46117;DHT22;32591;48.102;11.772;2022-10-03T14:43:51;15.80;94.90
46117;DHT22;32591;48.102;11.772;2022-10-03T14:46:23;15.80;94.70
46117;DHT22;32591;48.102;11.772;2022-10-03T14:48:56;15.70;94.50
46117;DHT22;32591;48.102;11.772;2022-10-03T14:51:27;15.50;95.80
46117;DHT22;32591;48.102;11.772;2022-10-03T14:53:58;15.30;96.30
46117;DHT22;32591;48.102;11.772;2022-10-03T14:56:32;15.10;96.90
46117;DHT22;32591;48.102;11.772;2022-10-03T14:59:02;14.80;97.70
46117;DHT22;32591;48.102;11.772;2022-10-03T15:01:46;14.70;97.90
46117;DHT22;32591;48.102;11.772;2022-10-03T15:04:23;14.70;98.00
46117;DHT22;32591;48.102;11.772;2022-10-03T15:06:55;14.90;97.60
46117;DHT22;32591;48.102;11.772;2022-10-03T15:09:25;15.30;96.90
46117;DHT22;32591;48.102;11.772;2022-10-03T15:12:01;15.50;96.60
46117;DHT22;32591;48.102;11.772;2022-10-03T15:14:35;15.70;96.90
46117;DHT22;32591;48.102;11.772;2022-10-03T15:17:15;15.70;96.10
46117;DHT22;32591;48.102;11.772;2022-10-03T15:19:47;15.80;96.70
46117;DHT22;32591;48.102;11.772;2022-10-03T15:22:25;15.70;96.20
46117;DHT22;32591;48.102;11.772;2022-10-03T15:25:00;15.70;95.90
46117;DHT22;32591;48.102;11.772;2022-10-03T15:27:33;15.80;96.50
46117;DHT22;32591;48.102;11.772;2022-10-03T15:30:03;16.10;95.40
46117;DHT22;32591;48.102;11.772;2022-10-03T15:32:37;16.20;95.00
46117;DHT22;32591;48.102;11.772;2022-10-03T15:35:13;15.90;95.20
46117;DHT22;32591;48.102;11.772;2022-10-03T15:37:42;15.50;95.50
46117;DHT22;32591;48.102;11.772;2022-10-03T15:40:21;15.50;95.00
46117;DHT22;32591;48.102;11.772;2022-10-03T15:42:57;15.50;94.70
46117;DHT22;32591;48.102;11.772;2022-10-03T15:45:27;15.70;95.40
46117;DHT22;32591;48.102;11.772;2022-10-03T15:48:01;15.50;95.20
46117;DHT22;32591;48.102;11.772;2022-10-03T15:50:33;15.20;95.80
46117;DHT22;32591;48.102;11.772;2022-10-03T15:53:07;15.10;95.90
46117;DHT22;32591;48.102;11.772;2022-10-03T15:55:40;14.90;96.20
46117;DHT22;32591;48.102;11.772;2022-10-03T15:58:16;14.80;96.20
46117;DHT22;32591;48.102;11.772;2022-10-03T16:00:51;14.70;97.10
46117;DHT22;32591;48.102;11.772;2022-10-03T16:03:27;14.50;97.30
46117;DHT22;32591;48.102;11.772;2022-10-03T16:06:01;14.40;98.60
46117;DHT22;32591;48.102;11.772;2022-10-03T16:08:33;14.30;98.40
46117;DHT22;32591;48.102;11.772;2022-10-03T16:11:07;14.30;98.30
46117;DHT22;32591;48.102;11.772;2022-10-03T16:13:41;14.10;98.90
46117;DHT22;32591;48.102;11.772;2022-10-03T16:16:16;14.00;99.20
46117;DHT22;32591;48.102;11.772;2022-10-03T16:18:54;13.80;99.50
46117;DHT22;32591;48.102;11.772;2022-10-03T16:21:40;13.70;99.90
46117;DHT22;32591;48.102;11.772;2022-10-03T16:24:20;13.70;99.90
46117;DHT22;32591;48.102;11.772;2022-10-03T16:26:57;13.60;99.90
46117;DHT22;32591;48.102;11.772;2022-10-03T16:29:33;13.60;99.90
46117;DHT22;32591;48.102;11.772;2022-10-03T16:32:05;13.50;99.90
46117;DHT22;32591;48.102;11.772;2022-10-03T16:34:36;13.50;99.90
46117;DHT22;32591;48.102;11.772;2022-10-03T16:37:16;13.40;99.90
46117;DHT22;32591;48.102;11.772;2022-10-03T16:39:52;13.40;99.90
46117;DHT22;32591;48.102;11.772;2022-10-03T16:42:23;13.40;99.90
46117;DHT22;32591;48.102;11.772;2022-10-03T16:44:54;13.30;99.90
46117;DHT22;32591;48.102;11.772;2022-10-03T16:47:32;13.20;99.90
46117;DHT22;32591;48.102;11.772;2022-10-03T16:50:03;13.10;99.90
46117;DHT22;32591;48.102;11.772;2022-10-03T16:52:51;13.10;99.90
46117;DHT22;32591;48.102;11.772;2022-10-03T16:55:22;13.00;99.90
46117;DHT22;32591;48.102;11.772;2022-10-03T16:57:56;12.90;99.90
46117;DHT22;32591;48.102;11.772;2022-10-03T17:00:29;12.80;99.90
46117;DHT22;32591;48.102;11.772;2022-10-03T17:03:01;12.70;99.90
46117;DHT22;32591;48.102;11.772;2022-10-03T17:05:37;12.60;99.90
46117;DHT22;32591;48.102;11.772;2022-10-03T17:08:09;12.50;99.90
46117;DHT22;32591;48.102;11.772;2022-10-03T17:10:39;12.40;99.90
46117;DHT22;32591;48.102;11.772;2022-10-03T17:13:12;12.40;99.90
46117;DHT22;32591;48.102;11.772;2022-10-03T17:15:46;12.20;99.90
46117;DHT22;32591;48.102;11.772;2022-10-03T17:18:24;12.20;99.90
46117;DHT22;32591;48.102;11.772;2022-10-03T17:20:57;12.10;99.90
46117;DHT22;32591;48.102;11.772;2022-10-03T17:23:33;12.10;99.90
46117;DHT22;32591;48.102;11.772;2022-10-03T17:26:10;12.00;99.90
46117;DHT22;32591;48.102;11.772;2022-10-03T17:28:43;11.90;99.90
46117;DHT22;32591;48.102;11.772;2022-10-03T17:31:24;11.90;99.90
46117;DHT22;32591;48.102;11.772;2022-10-03T17:34:00;11.90;99.90
46117;DHT22;32591;48.102;11.772;2022-10-03T17:36:55;11.80;99.90
46117;DHT22;32591;48.102;11.772;2022-10-03T17:39:40;11.60;99.90
46117;DHT22;32591;48.102;11.772;2022-10-03T17:42:35;11.50;99.90
46117;DHT22;32591;48.102;11.772;2022-10-03T17:45:26;11.50;99.90
46117;DHT22;32591;48.102;11.772;2022-10-03T17:48:03;11.40;99.90
46117;DHT22;32591;48.102;11.772;2022-10-03T17:50:41;11.30;99.90
46117;DHT22;32591;48.102;11.772;2022-10-03T17:53:21;11.20;99.90
46117;DHT22;32591;48.102;11.772;2022-10-03T17:55:54;11.20;99.90
46117;DHT22;32591;48.102;11.772;2022-10-03T17:58:25;11.10;99.90
46117;DHT22;32591;48.102;11.772;2022-10-03T18:00:59;11.10;99.90
46117;DHT22;32591;48.102;11.772;2022-10-03T18:03:38;11.00;99.90
46117;DHT22;32591;48.102;11.772;2022-10-03T18:06:35;10.90;99.90
46117;DHT22;32591;48.102;11.772;2022-10-03T18:09:23;10.90;99.90
46117;DHT22;32591;48.102;11.772;2022-10-03T18:11:55;10.80;99.90
46117;DHT22;32591;48.102;11.772;2022-10-03T18:14:35;10.70;99.90
46117;DHT22;32591;48.102;11.772;2022-10-03T18:17:13;10.70;99.90
46117;DHT22;32591;48.102;11.772;2022-10-03T18:19:51;10.60;99.90
46117;DHT22;32591;48.102;11.772;2022-10-03T18:22:29;10.60;99.90
46117;DHT22;32591;48.102;11.772;2022-10-03T18:25:08;10.50;99.90
46117;DHT22;32591;48.102;11.772;2022-10-03T18:28:09;10.50;99.90
46117;DHT22;32591;48.102;11.772;2022-10-03T18:30:45;10.40;99.90
46117;DHT22;32591;48.102;11.772;2022-10-03T18:33:20;10.40;99.90
46117;DHT22;32591;48.102;11.772;2022-10-03T18:35:49;10.30;99.90
46117;DHT22;32591;48.102;11.772;2022-10-03T18:38:19;10.30;99.90
46117;DHT22;32591;48.102;11.772;2022-10-03T18:40:51;10.20;99.90
46117;DHT22;32591;48.102;11.772;2022-10-03T18:43:27;10.20;99.90
46117;DHT22;32591;48.102;11.772;2022-10-03T18:46:16;10.10;99.90
46117;DHT22;32591;48.102;11.772;2022-10-03T18:48:58;10.10;99.90
46117;DHT22;32591;48.102;11.772;2022-10-03T18:51:33;10.00;99.90
46117;DHT22;32591;48.102;11.772;2022-10-03T18:54:06;10.00;99.90
46117;DHT22;32591;48.102;11.772;2022-10-03T18:56:42;9.90;99.90
46117;DHT22;32591;48.102;11.772;2022-10-03T18:59:21;9.80;99.90
46117;DHT22;32591;48.102;11.772;2022-10-03T19:01:54;9.80;99.90
46117;DHT22;32591;48.102;11.772;2022-10-03T19:04:36;9.70;99.90
46117;DHT22;32591;48.102;11.772;2022-10-03T19:07:14;9.70;99.90
46117;DHT22;32591;48.102;11.772;2022-10-03T19:10:02;9.70;99.90
46117;DHT22;32591;48.102;11.772;2022-10-03T19:12:41;9.60;99.90
46117;DHT22;32591;48.102;11.772;2022-10-03T19:15:18;9.60;99.90
46117;DHT22;32591;48.102;11.772;2022-10-03T19:17:58;9.50;99.90
46117;DHT22;32591;48.102;11.772;2022-10-03T19:20:35;9.50;99.90
46117;DHT22;32591;48.102;11.772;2022-10-03T19:23:07;9.40;99.90
46117;DHT22;32591;48.102;11.772;2022-10-03T19:25:39;9.30;99.90
46117;DHT22;32591;48.102;11.772;2022-10-03T19:28:17;9.20;99.90
46117;DHT22;32591;48.102;11.772;2022-10-03T19:30:46;9.30;99.90
46117;DHT22;32591;48.102;11.772;2022-10-03T19:33:25;9.30;99.90
46117;DHT22;32591;48.102;11.772;2022-10-03T19:35:57;9.20;99.90